createdAt,value
2017-01-25T00:00:13.934Z,80.36
2017-01-25T00:00:40.035Z,80.55
2017-01-25T00:01:06.125Z,80.93
2017-01-25T00:01:32.224Z,80.17
2017-01-25T00:01:58.328Z,80.36
2017-01-25T00:02:24.415Z,80.26
2017-01-25T00:02:50.513Z,80.83
2017-01-25T00:03:16.604Z,79.98
2017-01-25T00:03:42.708Z,80.45
2017-01-25T00:04:08.808Z,80.36
2017-01-25T00:04:34.893Z,80.36
2017-01-25T00:05:00.994Z,80.74
2017-01-25T00:05:27.107Z,80.64
2017-01-25T00:05:53.190Z,80.36
2017-01-25T00:06:19.286Z,80.74
2017-01-25T00:06:45.391Z,80.74
2017-01-25T00:07:11.479Z,80.74
2017-01-25T00:07:37.577Z,80.64
2017-01-25T00:08:03.680Z,80.07
2017-01-25T00:08:29.774Z,80.36
2017-01-25T00:08:55.876Z,80.17
2017-01-25T00:09:21.965Z,80.17
2017-01-25T00:09:48.061Z,80.07
2017-01-25T00:10:14.171Z,80.26
2017-01-25T00:10:40.281Z,79.98
2017-01-25T00:11:06.377Z,80.36
2017-01-25T00:11:32.483Z,80.83
2017-01-25T00:11:58.581Z,80.74
2017-01-25T00:12:24.667Z,80.93
2017-01-25T00:12:50.799Z,80.74
2017-01-25T00:13:16.874Z,80.74
2017-01-25T00:13:42.961Z,80.74
2017-01-25T00:14:09.067Z,79.98
2017-01-25T00:14:35.190Z,81.02
2017-01-25T00:15:01.282Z,80.36
2017-01-25T00:15:27.386Z,80.45
2017-01-25T00:15:53.493Z,80.17
2017-01-25T00:16:19.578Z,80.45
2017-01-25T00:16:45.675Z,80.55
2017-01-25T00:17:11.781Z,80.17
2017-01-25T00:17:37.869Z,80.26
2017-01-25T00:18:03.966Z,79.69
2017-01-25T00:18:30.067Z,79.88
2017-01-25T00:18:56.157Z,79.6
2017-01-25T00:19:22.247Z,80.07
2017-01-25T00:19:48.353Z,79.79
2017-01-25T00:20:14.454Z,79.88
2017-01-25T00:20:40.555Z,79.6
2017-01-25T00:21:06.645Z,80.07
2017-01-25T00:21:32.739Z,80.55
2017-01-25T00:21:58.879Z,80.55
2017-01-25T00:22:24.972Z,80.07
2017-01-25T00:22:51.058Z,80.64
2017-01-25T00:23:17.167Z,80.83
2017-01-25T00:23:43.265Z,80.93
2017-01-25T00:24:09.356Z,81.02
2017-01-25T00:24:35.459Z,81.4
2017-01-25T00:25:01.555Z,81.77
2017-01-25T00:25:27.649Z,81.83
2017-01-25T00:25:53.740Z,81.68
2017-01-25T00:26:19.835Z,81.68
2017-01-25T00:26:45.941Z,81.77
2017-01-25T00:27:12.032Z,81.45
2017-01-25T00:27:38.119Z,81.49
2017-01-25T00:28:04.227Z,81.59
2017-01-25T00:28:30.330Z,81.55
2017-01-25T00:28:56.419Z,81.55
2017-01-25T00:29:22.521Z,81.59
2017-01-25T00:29:48.625Z,81.45
2017-01-25T00:30:14.709Z,81.55
2017-01-25T00:30:40.813Z,81.93
2017-01-25T00:31:06.909Z,81.74
2017-01-25T00:31:33.008Z,82.21
2017-01-25T00:31:59.108Z,82.21
2017-01-25T00:32:25.195Z,82.21
2017-01-25T00:32:51.304Z,82.68
2017-01-25T00:33:17.441Z,82.31
2017-01-25T00:33:43.523Z,82.31
2017-01-25T00:34:09.623Z,82.68
2017-01-25T00:34:35.724Z,82.59
2017-01-25T00:35:01.815Z,82.78
2017-01-25T00:35:27.911Z,83.06
2017-01-25T00:35:54.021Z,82.97
2017-01-25T00:36:20.106Z,82.97
2017-01-25T00:36:46.230Z,82.87
2017-01-25T00:37:12.305Z,82.97
2017-01-25T00:37:38.428Z,82.97
2017-01-25T00:38:04.485Z,83.15
2017-01-25T00:38:30.605Z,82.87
2017-01-25T00:38:56.704Z,83.06
2017-01-25T00:39:22.783Z,82.59
2017-01-25T00:39:48.882Z,82.31
2017-01-25T00:40:15.019Z,82.21
2017-01-25T00:40:41.108Z,82.4
2017-01-25T00:41:07.207Z,82.21
2017-01-25T00:41:33.313Z,82.5
2017-01-25T00:41:59.401Z,82.21
2017-01-25T00:42:25.500Z,82.87
2017-01-25T00:42:51.594Z,82.21
2017-01-25T00:43:17.698Z,82.4
2017-01-25T00:43:43.805Z,82.5
2017-01-25T00:44:09.888Z,82.31
2017-01-25T00:44:35.990Z,82.78
2017-01-25T00:45:02.097Z,82.12
2017-01-25T00:45:28.186Z,82.12
2017-01-25T00:45:54.280Z,82.31
2017-01-25T00:46:20.387Z,82.31
2017-01-25T00:46:46.479Z,81.96
2017-01-25T00:47:12.566Z,82.34
2017-01-25T00:47:38.671Z,81.83
2017-01-25T00:48:04.769Z,81.93
2017-01-25T00:48:30.869Z,81.74
2017-01-25T00:48:56.962Z,82.02
2017-01-25T00:49:23.055Z,82.12
2017-01-25T00:49:49.160Z,82.02
2017-01-25T00:50:15.256Z,82.5
2017-01-25T00:50:41.343Z,82.5
2017-01-25T00:51:07.451Z,82.53
2017-01-25T00:51:33.547Z,82.15
2017-01-25T00:51:59.647Z,82.21
2017-01-25T00:52:25.744Z,81.93
2017-01-25T00:52:51.838Z,81.87
2017-01-25T00:53:17.940Z,81.77
2017-01-25T00:53:44.033Z,81.93
2017-01-25T00:54:10.125Z,82.12
2017-01-25T00:54:36.231Z,82.02
2017-01-25T00:55:02.335Z,81.93
2017-01-25T00:55:28.420Z,82.31
2017-01-25T00:55:54.533Z,81.93
2017-01-25T00:56:20.625Z,82.5
2017-01-25T00:56:46.716Z,82.15
2017-01-25T00:57:12.820Z,81.93
2017-01-25T00:57:38.927Z,82.21
2017-01-25T00:58:05.013Z,82.15
2017-01-25T00:58:31.111Z,81.96
2017-01-25T00:58:57.216Z,81.96
2017-01-25T00:59:23.307Z,81.68
2017-01-25T00:59:49.406Z,81.68
2017-01-25T01:00:15.515Z,81.87
2017-01-25T01:00:41.602Z,81.49
2017-01-25T01:01:07.690Z,81.02
2017-01-25T01:01:33.805Z,80.83
2017-01-25T01:01:59.896Z,80.93
2017-01-25T01:02:25.990Z,80.93
2017-01-25T01:02:52.094Z,81.02
2017-01-25T01:03:18.199Z,80.83
2017-01-25T01:03:44.286Z,81.12
2017-01-25T01:04:10.390Z,81.02
2017-01-25T01:04:36.480Z,81.02
2017-01-25T01:05:02.610Z,80.93
2017-01-25T01:05:28.710Z,80.45
2017-01-25T01:05:54.799Z,80.83
2017-01-25T01:06:20.908Z,80.93
2017-01-25T01:06:47.007Z,80.74
2017-01-25T01:07:13.095Z,80.83
2017-01-25T01:07:39.201Z,80.64
2017-01-25T01:08:05.304Z,80.74
2017-01-25T01:08:31.384Z,80.83
2017-01-25T01:08:57.484Z,80.74
2017-01-25T01:09:23.592Z,80.45
2017-01-25T01:09:49.681Z,80.93
2017-01-25T01:10:15.783Z,81.02
2017-01-25T01:10:41.876Z,81.12
2017-01-25T01:11:07.983Z,80.74
2017-01-25T01:11:34.089Z,80.83
2017-01-25T01:12:00.174Z,80.64
2017-01-25T01:12:26.272Z,80.17
2017-01-25T01:12:52.379Z,80.26
2017-01-25T01:13:18.470Z,80.36
2017-01-25T01:13:44.567Z,80.45
2017-01-25T01:14:10.672Z,80.83
2017-01-25T01:14:36.770Z,79.88
2017-01-25T01:15:02.854Z,79.98
2017-01-25T01:15:28.958Z,80.17
2017-01-25T01:16:46.571Z,80.55
2017-01-25T01:17:12.661Z,80.07
2017-01-25T01:17:38.753Z,80.36
2017-01-25T01:18:04.864Z,80.55
2017-01-25T01:18:30.954Z,79.98
2017-01-25T01:18:57.046Z,80.17
2017-01-25T01:19:23.157Z,79.98
2017-01-25T01:19:49.256Z,80.07
2017-01-25T01:20:15.342Z,80.07
2017-01-25T01:20:41.452Z,80.17
2017-01-25T01:21:07.549Z,80.07
2017-01-25T01:21:33.643Z,80.55
2017-01-25T01:21:59.750Z,80.36
2017-01-25T01:22:25.841Z,80.55
2017-01-25T01:22:51.958Z,80.26
2017-01-25T01:23:18.057Z,79.79
2017-01-25T01:23:44.147Z,79.98
2017-01-25T01:24:10.252Z,80.17
2017-01-25T01:24:36.354Z,79.98
2017-01-25T01:25:02.446Z,79.98
2017-01-25T01:25:28.550Z,79.88
2017-01-25T01:25:54.661Z,79.88
2017-01-25T01:26:20.748Z,79.98
2017-01-25T01:26:46.846Z,79.6
2017-01-25T01:27:12.947Z,79.41
2017-01-25T01:27:39.042Z,79.41
2017-01-25T01:28:05.145Z,79.5
2017-01-25T01:28:31.229Z,79.32
2017-01-25T01:28:57.336Z,79.5
2017-01-25T01:29:23.447Z,79.32
2017-01-25T01:29:49.537Z,79.6
2017-01-25T01:30:15.635Z,79.69
2017-01-25T01:30:41.745Z,79.6
2017-01-25T01:31:07.835Z,79.6
2017-01-25T01:31:33.932Z,80.26
2017-01-25T01:32:00.037Z,79.98
2017-01-25T01:32:26.134Z,80.07
2017-01-25T01:32:52.231Z,79.69
2017-01-25T01:33:18.326Z,80.26
2017-01-25T01:33:44.434Z,79.88
2017-01-25T01:34:10.544Z,79.98
2017-01-25T01:34:36.631Z,80.04
2017-01-25T01:35:02.726Z,79.98
2017-01-25T01:35:28.837Z,79.94
2017-01-25T01:35:54.935Z,79.88
2017-01-25T01:36:21.020Z,80.22
2017-01-25T01:36:47.135Z,80.04
2017-01-25T01:37:13.229Z,80.74
2017-01-25T01:37:39.323Z,80.64
2017-01-25T01:38:05.423Z,80.6
2017-01-25T01:38:31.525Z,80.26
2017-01-25T01:38:57.615Z,80.64
2017-01-25T01:39:23.717Z,80.17
2017-01-25T01:39:49.826Z,80.36
2017-01-25T01:40:15.910Z,79.69
2017-01-25T01:40:42.013Z,80.36
2017-01-25T01:41:08.123Z,80.22
2017-01-25T01:41:34.215Z,80.13
2017-01-25T01:42:00.310Z,80.13
2017-01-25T01:42:26.423Z,80.6
2017-01-25T01:42:52.517Z,80.32
2017-01-25T01:43:18.612Z,80.32
2017-01-25T01:43:44.722Z,80.51
2017-01-25T01:44:10.813Z,80.6
2017-01-25T01:44:36.923Z,80.22
2017-01-25T01:45:03.036Z,79.94
2017-01-25T01:45:29.111Z,80.69
2017-01-25T01:45:55.217Z,80.79
2017-01-25T01:46:21.309Z,80.79
2017-01-25T01:46:47.401Z,80.79
2017-01-25T01:47:13.536Z,80.69
2017-01-25T01:47:39.635Z,80.6
2017-01-25T01:48:05.722Z,80.69
2017-01-25T01:48:31.832Z,80.41
2017-01-25T01:48:57.928Z,80.88
2017-01-25T01:49:24.022Z,80.88
2017-01-25T01:49:50.127Z,80.6
2017-01-25T01:50:16.215Z,80.41
2017-01-25T01:50:42.426Z,81.26
2017-01-25T01:51:08.529Z,81.17
2017-01-25T01:51:34.618Z,80.98
2017-01-25T01:52:00.726Z,81.07
2017-01-25T01:52:26.825Z,81.17
2017-01-25T01:52:52.914Z,81.83
2017-01-25T01:53:19.021Z,81.64
2017-01-25T01:53:45.131Z,81.55
2017-01-25T01:54:11.213Z,82.21
2017-01-25T01:54:37.339Z,82.31
2017-01-25T01:55:03.444Z,82.59
2017-01-25T01:55:29.536Z,82.12
2017-01-25T01:55:55.636Z,82.59
2017-01-25T01:56:21.725Z,83.15
2017-01-25T01:56:47.830Z,82.4
2017-01-25T01:57:13.934Z,82.31
2017-01-25T01:57:40.021Z,82.31
2017-01-25T01:58:06.121Z,82.31
2017-01-25T01:58:32.231Z,82.12
2017-01-25T01:58:58.318Z,82.68
2017-01-25T01:59:24.415Z,82.59
2017-01-25T01:59:50.520Z,82.68
2017-01-25T02:00:16.618Z,83.15
2017-01-25T02:00:42.708Z,82.4
2017-01-25T02:01:08.807Z,82.5
2017-01-25T02:01:34.913Z,82.31
2017-01-25T02:02:01.012Z,82.12
2017-01-25T02:02:27.106Z,82.4
2017-01-25T02:02:53.197Z,82.5
2017-01-25T02:03:19.309Z,82.45
2017-01-25T02:03:45.405Z,82.4
2017-01-25T02:04:11.496Z,82.59
2017-01-25T02:04:37.602Z,82.59
2017-01-25T02:05:03.695Z,82.54
2017-01-25T02:05:29.786Z,82.87
2017-01-25T02:05:55.890Z,82.97
2017-01-25T02:06:21.993Z,82.87
2017-01-25T02:06:48.091Z,83.15
2017-01-25T02:07:14.181Z,82.78
2017-01-25T02:07:40.279Z,82.78
2017-01-25T02:08:06.389Z,82.31
2017-01-25T02:08:32.489Z,82.21
2017-01-25T02:08:58.572Z,82.31
2017-01-25T02:09:24.677Z,82.59
2017-01-25T02:09:50.776Z,82.21
2017-01-25T02:10:16.868Z,82.97
2017-01-25T02:10:42.971Z,82.68
2017-01-25T02:11:09.078Z,82.59
2017-01-25T02:11:35.163Z,82.5
2017-01-25T02:12:01.264Z,82.5
2017-01-25T02:12:27.359Z,82.59
2017-01-25T02:12:53.466Z,82.12
2017-01-25T02:13:19.565Z,81.83
2017-01-25T02:13:45.654Z,82.31
2017-01-25T02:14:11.762Z,81.93
2017-01-25T02:14:37.874Z,82.12
2017-01-25T02:15:03.959Z,82.21
2017-01-25T02:15:30.056Z,82.21
2017-01-25T02:15:56.162Z,82.31
2017-01-25T02:16:22.251Z,82.07
2017-01-25T02:16:48.347Z,82.07
2017-01-25T02:17:14.455Z,82.26
2017-01-25T02:17:40.552Z,82.64
2017-01-25T02:18:06.653Z,82.59
2017-01-25T02:18:32.743Z,82.54
2017-01-25T02:18:58.843Z,82.26
2017-01-25T02:19:24.955Z,82.64
2017-01-25T02:19:51.040Z,82.83
2017-01-25T02:20:17.136Z,82.83
2017-01-25T02:20:43.242Z,82.83
2017-01-25T02:21:09.342Z,82.64
2017-01-25T02:21:35.433Z,82.83
2017-01-25T02:22:01.545Z,82.64
2017-01-25T02:22:27.640Z,83.21
2017-01-25T02:22:53.729Z,83.59
2017-01-25T02:23:19.838Z,83.97
2017-01-25T02:23:45.932Z,83.97
2017-01-25T02:24:12.026Z,83.78
2017-01-25T02:24:38.131Z,83.59
2017-01-25T02:25:04.240Z,84.44
2017-01-25T02:25:30.324Z,83.87
2017-01-25T02:25:56.422Z,83.78
2017-01-25T02:26:22.535Z,84.63
2017-01-25T02:26:48.624Z,83.87
2017-01-25T02:27:14.721Z,84.06
2017-01-25T02:27:40.828Z,83.87
2017-01-25T02:28:06.919Z,83.97
2017-01-25T02:28:33.017Z,84.25
2017-01-25T02:28:59.114Z,83.87
2017-01-25T02:29:25.237Z,83.68
2017-01-25T02:29:51.317Z,83.68
2017-01-25T02:30:17.405Z,83.78
2017-01-25T02:30:43.499Z,83.87
2017-01-25T02:31:09.609Z,83.78
2017-01-25T02:31:35.701Z,83.68
2017-01-25T02:32:01.792Z,83.87
2017-01-25T02:32:27.899Z,83.97
2017-01-25T02:32:53.998Z,84.06
2017-01-25T02:33:20.086Z,84.06
2017-01-25T02:33:46.191Z,83.78
2017-01-25T02:34:12.288Z,83.87
2017-01-25T02:34:38.384Z,83.78
2017-01-25T02:35:04.478Z,83.87
2017-01-25T02:35:30.573Z,83.78
2017-01-25T02:35:56.683Z,83.68
2017-01-25T02:36:22.778Z,83.68
2017-01-25T02:36:48.867Z,83.97
2017-01-25T02:37:14.977Z,83.68
2017-01-25T02:37:41.072Z,83.21
2017-01-25T02:38:07.165Z,83.3
2017-01-25T02:38:33.270Z,83.59
2017-01-25T02:38:59.379Z,83.59
2017-01-25T02:39:25.462Z,83.97
2017-01-25T02:39:51.565Z,83.68
2017-01-25T02:40:17.666Z,84.44
2017-01-25T02:40:43.767Z,84.25
2017-01-25T02:41:09.865Z,83.97
2017-01-25T02:41:35.954Z,83.87
2017-01-25T02:42:02.065Z,84.34
2017-01-25T02:42:28.176Z,84.34
2017-01-25T02:42:54.257Z,84.06
2017-01-25T02:43:20.354Z,84.16
2017-01-25T02:43:46.458Z,84.44
2017-01-25T02:44:12.548Z,83.97
2017-01-25T02:44:38.642Z,83.87
2017-01-25T02:45:04.782Z,83.97
2017-01-25T02:45:30.870Z,83.87
2017-01-25T02:45:56.963Z,83.87
2017-01-25T02:46:23.070Z,83.87
2017-01-25T02:46:49.168Z,84.06
2017-01-25T02:47:15.251Z,84.34
2017-01-25T02:47:41.363Z,83.87
2017-01-25T02:48:07.466Z,83.59
2017-01-25T02:48:33.556Z,83.87
2017-01-25T02:48:59.656Z,83.97
2017-01-25T02:49:25.763Z,83.78
2017-01-25T02:49:51.855Z,83.68
2017-01-25T02:50:17.953Z,83.59
2017-01-25T02:50:44.061Z,83.21
2017-01-25T02:51:10.150Z,83.4
2017-01-25T02:51:36.252Z,83.49
2017-01-25T02:52:02.344Z,83.21
2017-01-25T02:52:28.444Z,83.4
2017-01-25T02:52:54.551Z,83.02
2017-01-25T02:53:20.633Z,83.11
2017-01-25T02:53:46.734Z,83.02
2017-01-25T02:54:12.839Z,82.83
2017-01-25T02:54:38.932Z,82.83
2017-01-25T02:55:05.027Z,82.83
2017-01-25T02:55:31.131Z,82.92
2017-01-25T02:55:57.228Z,82.83
2017-01-25T02:56:23.317Z,82.83
2017-01-25T02:56:49.422Z,82.83
2017-01-25T02:57:15.524Z,83.11
2017-01-25T02:57:41.625Z,82.83
2017-01-25T02:58:07.715Z,82.64
2017-01-25T02:58:33.812Z,82.45
2017-01-25T02:58:59.918Z,83.02
2017-01-25T02:59:26.059Z,81.79
2017-01-25T02:59:52.106Z,82.64
2017-01-25T03:00:18.210Z,82.45
2017-01-25T03:00:44.309Z,82.45
2017-01-25T03:01:10.400Z,82.26
2017-01-25T03:01:36.504Z,82.45
2017-01-25T03:02:02.607Z,82.35
2017-01-25T03:02:28.706Z,82.45
2017-01-25T03:02:54.797Z,82.45
2017-01-25T03:03:20.894Z,82.45
2017-01-25T03:03:46.997Z,82.26
2017-01-25T03:04:13.101Z,82.07
2017-01-25T03:04:39.183Z,82.45
2017-01-25T03:05:05.289Z,82.17
2017-01-25T03:05:31.383Z,82.07
2017-01-25T03:05:57.475Z,82.26
2017-01-25T03:06:23.575Z,82.26
2017-01-25T03:06:49.679Z,82.92
2017-01-25T03:07:15.763Z,82.26
2017-01-25T03:07:41.864Z,82.45
2017-01-25T03:08:07.965Z,82.26
2017-01-25T03:08:34.057Z,82.07
2017-01-25T03:09:00.160Z,83.02
2017-01-25T03:09:26.264Z,83.02
2017-01-25T03:09:52.392Z,83.11
2017-01-25T03:10:18.438Z,82.54
2017-01-25T03:10:44.552Z,82.45
2017-01-25T03:11:10.642Z,82.26
2017-01-25T03:11:36.730Z,82.45
2017-01-25T03:12:02.835Z,82.45
2017-01-25T03:12:28.937Z,82.07
2017-01-25T03:12:55.023Z,81.88
2017-01-25T03:13:21.125Z,82.17
2017-01-25T03:13:47.215Z,82.54
2017-01-25T03:14:13.319Z,82.92
2017-01-25T03:14:39.419Z,82.45
2017-01-25T03:15:05.507Z,82.35
2017-01-25T03:15:31.612Z,82.35
2017-01-25T03:15:57.715Z,82.26
2017-01-25T03:16:23.800Z,82.26
2017-01-25T03:16:49.905Z,82.45
2017-01-25T03:17:16.006Z,82.35
2017-01-25T03:17:42.086Z,82.07
2017-01-25T03:18:08.185Z,82.17
2017-01-25T03:18:34.294Z,82.26
2017-01-25T03:19:00.378Z,82.54
2017-01-25T03:19:26.480Z,82.17
2017-01-25T03:19:52.569Z,82.17
2017-01-25T03:20:18.678Z,82.45
2017-01-25T03:20:44.782Z,82.73
2017-01-25T03:21:10.860Z,82.45
2017-01-25T03:21:36.956Z,82.45
2017-01-25T03:22:03.063Z,82.26
2017-01-25T03:22:29.150Z,81.88
2017-01-25T03:22:55.243Z,82.17
2017-01-25T03:23:21.348Z,81.98
2017-01-25T03:23:47.441Z,81.51
2017-01-25T03:24:13.524Z,81.51
2017-01-25T03:24:39.628Z,81.51
2017-01-25T03:25:05.731Z,81.41
2017-01-25T03:25:31.830Z,81.22
2017-01-25T03:25:57.922Z,81.51
2017-01-25T03:26:24.014Z,81.51
2017-01-25T03:26:50.125Z,81.32
2017-01-25T03:27:16.221Z,81.51
2017-01-25T03:27:42.307Z,81.7
2017-01-25T03:28:08.427Z,81.79
2017-01-25T03:28:34.520Z,81.7
2017-01-25T03:29:00.609Z,81.98
2017-01-25T03:29:26.716Z,81.7
2017-01-25T03:29:52.820Z,81.51
2017-01-25T03:30:18.922Z,81.88
2017-01-25T03:30:45.016Z,81.6
2017-01-25T03:31:11.108Z,81.7
2017-01-25T03:31:37.217Z,81.51
2017-01-25T03:32:03.317Z,81.6
2017-01-25T03:32:29.404Z,81.88
2017-01-25T03:32:55.508Z,81.98
2017-01-25T03:33:22.219Z,81.32
2017-01-25T03:33:48.306Z,81.32
2017-01-25T03:34:14.455Z,81.03
2017-01-25T03:34:40.507Z,81.13
2017-01-25T03:35:06.599Z,80.94
2017-01-25T03:35:32.698Z,80.56
2017-01-25T03:35:58.787Z,81.13
2017-01-25T03:36:24.895Z,81.22
2017-01-25T03:36:51.027Z,81.98
2017-01-25T03:37:17.119Z,81.88
2017-01-25T03:37:43.222Z,81.6
2017-01-25T03:38:09.322Z,81.6
2017-01-25T03:38:35.407Z,81.41
2017-01-25T03:39:01.505Z,82.07
2017-01-25T03:39:27.617Z,81.6
2017-01-25T03:39:53.707Z,81.51
2017-01-25T03:40:19.807Z,81.51
2017-01-25T03:40:45.898Z,81.88
2017-01-25T03:41:11.987Z,81.6
2017-01-25T03:41:38.093Z,81.88
2017-01-25T03:42:04.175Z,81.41
2017-01-25T03:42:30.273Z,81.22
2017-01-25T03:42:56.371Z,81.51
2017-01-25T03:43:22.462Z,81.32
2017-01-25T03:43:48.559Z,81.22
2017-01-25T03:44:14.667Z,80.75
2017-01-25T03:44:40.754Z,80.65
2017-01-25T03:45:06.840Z,80.65
2017-01-25T03:45:32.948Z,80.94
2017-01-25T03:45:59.044Z,80.94
2017-01-25T03:46:25.140Z,80.65
2017-01-25T03:46:51.243Z,81.22
2017-01-25T03:47:17.349Z,81.22
2017-01-25T03:47:43.445Z,81.32
2017-01-25T03:48:09.537Z,81.32
2017-01-25T03:48:35.631Z,81.98
2017-01-25T03:49:01.734Z,81.88
2017-01-25T03:49:27.830Z,81.22
2017-01-25T03:49:53.917Z,81.51
2017-01-25T03:50:20.023Z,81.88
2017-01-25T03:50:46.120Z,82.26
2017-01-25T03:51:12.210Z,82.35
2017-01-25T03:51:38.312Z,81.88
2017-01-25T03:52:04.412Z,82.07
2017-01-25T03:52:30.497Z,82.45
2017-01-25T03:52:56.603Z,82.73
2017-01-25T03:53:22.712Z,82.26
2017-01-25T03:53:48.804Z,82.35
2017-01-25T03:54:14.899Z,82.54
2017-01-25T03:54:41.004Z,82.45
2017-01-25T03:55:07.109Z,82.92
2017-01-25T03:55:33.221Z,83.11
2017-01-25T03:55:59.334Z,82.64
2017-01-25T03:56:25.432Z,82.92
2017-01-25T03:56:51.523Z,82.73
2017-01-25T03:57:17.627Z,82.83
2017-01-25T03:57:43.726Z,82.73
2017-01-25T03:58:09.825Z,82.54
2017-01-25T03:58:35.916Z,82.73
2017-01-25T03:59:02.000Z,82.73
2017-01-25T03:59:28.111Z,82.64
2017-01-25T03:59:54.206Z,82.26
2017-01-25T04:00:20.296Z,82.35
2017-01-25T04:00:46.402Z,82.73
2017-01-25T04:01:12.509Z,82.17
2017-01-25T04:01:38.591Z,82.07
2017-01-25T04:02:04.691Z,81.79
2017-01-25T04:02:30.795Z,81.79
2017-01-25T04:02:56.884Z,81.41
2017-01-25T04:03:22.989Z,81.6
2017-01-25T04:03:49.073Z,81.51
2017-01-25T04:04:15.214Z,81.79
2017-01-25T04:04:41.316Z,81.7
2017-01-25T04:05:07.405Z,81.6
2017-01-25T04:05:33.502Z,81.51
2017-01-25T04:05:59.609Z,81.88
2017-01-25T04:06:25.696Z,81.51
2017-01-25T04:06:51.796Z,81.98
2017-01-25T04:07:17.903Z,81.6
2017-01-25T04:07:43.989Z,81.51
2017-01-25T04:08:10.087Z,81.7
2017-01-25T04:08:36.186Z,81.6
2017-01-25T04:09:02.286Z,81.88
2017-01-25T04:09:28.395Z,81.22
2017-01-25T04:09:54.476Z,81.22
2017-01-25T04:10:20.581Z,81.13
2017-01-25T04:10:46.687Z,81.22
2017-01-25T04:11:12.770Z,81.13
2017-01-25T04:11:38.874Z,80.75
2017-01-25T04:12:04.983Z,81.13
2017-01-25T04:12:31.076Z,81.13
2017-01-25T04:12:57.161Z,81.03
2017-01-25T04:13:23.272Z,81.41
2017-01-25T04:13:49.372Z,81.41
2017-01-25T04:14:15.459Z,81.13
2017-01-25T04:14:41.563Z,81.22
2017-01-25T04:15:07.650Z,81.41
2017-01-25T04:15:33.760Z,81.51
2017-01-25T04:15:59.852Z,81.51
2017-01-25T04:16:25.944Z,81.7
2017-01-25T04:16:52.049Z,81.7
2017-01-25T04:17:18.167Z,81.7
2017-01-25T04:17:44.264Z,81.98
2017-01-25T04:18:10.370Z,81.79
2017-01-25T04:18:36.477Z,81.7
2017-01-25T04:19:02.565Z,81.6
2017-01-25T04:19:28.664Z,81.88
2017-01-25T04:19:54.774Z,81.51
2017-01-25T04:20:20.868Z,81.22
2017-01-25T04:20:46.965Z,81.41
2017-01-25T04:21:13.050Z,81.51
2017-01-25T04:21:39.157Z,81.79
2017-01-25T04:22:05.257Z,82.26
2017-01-25T04:22:31.350Z,82.54
2017-01-25T04:22:57.454Z,82.35
2017-01-25T04:23:23.560Z,82.07
2017-01-25T04:23:49.640Z,82.35
2017-01-25T04:24:15.739Z,82.03
2017-01-25T04:24:41.847Z,82.22
2017-01-25T04:25:07.931Z,82.54
2017-01-25T04:25:34.020Z,82.5
2017-01-25T04:26:00.116Z,83.07
2017-01-25T04:26:26.220Z,83.17
2017-01-25T04:26:52.331Z,83.17
2017-01-25T04:27:18.412Z,83.54
2017-01-25T04:27:44.514Z,83.45
2017-01-25T04:28:10.615Z,83.92
2017-01-25T04:28:36.706Z,83.64
2017-01-25T04:29:02.803Z,83.83
2017-01-25T04:29:28.910Z,84.3
2017-01-25T04:29:55.025Z,84.2
2017-01-25T04:30:21.087Z,84.25
2017-01-25T04:30:47.194Z,83.36
2017-01-25T04:31:13.291Z,83.49
2017-01-25T04:31:39.399Z,84.06
2017-01-25T04:32:05.481Z,83.73
2017-01-25T04:32:31.573Z,83.78
2017-01-25T04:32:57.675Z,83.45
2017-01-25T04:33:23.774Z,83.49
2017-01-25T04:33:49.863Z,83.02
2017-01-25T04:34:15.970Z,82.92
2017-01-25T04:34:42.068Z,82.64
2017-01-25T04:35:08.148Z,82.73
2017-01-25T04:35:34.255Z,82.26
2017-01-25T04:36:00.354Z,82.45
2017-01-25T04:36:26.440Z,82.26
2017-01-25T04:36:52.544Z,82.64
2017-01-25T04:37:18.656Z,82.26
2017-01-25T04:37:44.739Z,82.17
2017-01-25T04:38:10.832Z,82.07
2017-01-25T04:38:36.939Z,81.98
2017-01-25T04:39:03.031Z,82.26
2017-01-25T04:39:29.132Z,82.07
2017-01-25T04:39:55.236Z,82.45
2017-01-25T04:40:21.329Z,82.26
2017-01-25T04:40:47.422Z,81.98
2017-01-25T04:41:13.536Z,82.26
2017-01-25T04:41:39.629Z,81.88
2017-01-25T04:42:05.719Z,82.17
2017-01-25T04:42:31.825Z,82.17
2017-01-25T04:42:57.915Z,82.26
2017-01-25T04:43:24.020Z,82.35
2017-01-25T04:43:50.113Z,81.88
2017-01-25T04:44:16.202Z,81.88
2017-01-25T04:44:42.305Z,81.88
2017-01-25T04:45:08.405Z,81.32
2017-01-25T04:45:34.492Z,81.7
2017-01-25T04:46:00.599Z,81.41
2017-01-25T04:46:26.722Z,81.22
2017-01-25T04:46:52.810Z,81.03
2017-01-25T04:47:18.914Z,80.94
2017-01-25T04:47:45.014Z,81.03
2017-01-25T04:48:11.107Z,81.22
2017-01-25T04:48:37.202Z,81.13
2017-01-25T04:49:03.287Z,80.46
2017-01-25T04:49:29.397Z,81.03
2017-01-25T04:49:55.494Z,80.84
2017-01-25T04:50:21.585Z,80.65
2017-01-25T04:50:47.687Z,80.65
2017-01-25T04:51:13.794Z,80.75
2017-01-25T04:51:39.882Z,80.94
2017-01-25T04:52:05.981Z,80.84
2017-01-25T04:52:32.086Z,80.94
2017-01-25T04:52:58.175Z,80.94
2017-01-25T04:53:24.274Z,80.56
2017-01-25T04:53:50.367Z,81.13
2017-01-25T04:54:16.474Z,81.51
2017-01-25T04:54:42.582Z,81.41
2017-01-25T04:55:08.666Z,81.6
2017-01-25T04:55:34.767Z,81.7
2017-01-25T04:56:00.865Z,81.51
2017-01-25T04:56:26.959Z,81.51
2017-01-25T04:56:53.057Z,81.51
2017-01-25T04:57:19.161Z,81.51
2017-01-25T04:57:45.247Z,81.32
2017-01-25T04:58:11.340Z,81.41
2017-01-25T04:58:37.449Z,81.51
2017-01-25T04:59:03.547Z,81.6
2017-01-25T04:59:29.647Z,81.51
2017-01-25T04:59:55.738Z,81.32
2017-01-25T05:00:21.841Z,81.88
2017-01-25T05:00:47.947Z,81.6
2017-01-25T05:01:14.044Z,81.79
2017-01-25T05:01:40.138Z,82.17
2017-01-25T05:02:06.246Z,81.88
2017-01-25T05:02:32.340Z,82.31
2017-01-25T05:02:58.434Z,82.41
2017-01-25T05:03:24.539Z,82.41
2017-01-25T05:03:50.645Z,82.69
2017-01-25T05:04:16.730Z,82.12
2017-01-25T05:04:42.833Z,82.22
2017-01-25T05:05:08.923Z,82.6
2017-01-25T05:05:35.029Z,82.69
2017-01-25T05:06:01.124Z,82.88
2017-01-25T05:06:27.218Z,82.79
2017-01-25T05:06:53.321Z,82.6
2017-01-25T05:07:19.422Z,82.5
2017-01-25T05:07:45.516Z,82.69
2017-01-25T05:08:11.621Z,82.79
2017-01-25T05:08:37.720Z,82.98
2017-01-25T05:09:03.806Z,82.6
2017-01-25T05:09:29.904Z,82.31
2017-01-25T05:09:56.017Z,82.22
2017-01-25T05:10:22.105Z,82.31
2017-01-25T05:10:48.213Z,82.17
2017-01-25T05:11:14.304Z,82.26
2017-01-25T05:11:40.410Z,82.88
2017-01-25T05:12:06.510Z,82.73
2017-01-25T05:12:32.589Z,82.07
2017-01-25T05:12:58.687Z,81.98
2017-01-25T05:13:24.792Z,81.84
2017-01-25T05:13:50.881Z,81.98
2017-01-25T05:14:16.980Z,82.45
2017-01-25T05:14:43.089Z,82.45
2017-01-25T05:15:09.180Z,81.88
2017-01-25T05:15:35.266Z,81.79
2017-01-25T05:16:01.373Z,81.7
2017-01-25T05:16:27.473Z,81.7
2017-01-25T05:16:53.573Z,81.6
2017-01-25T05:17:19.667Z,81.22
2017-01-25T05:17:45.763Z,81.03
2017-01-25T05:18:11.869Z,80.65
2017-01-25T05:18:37.962Z,80.75
2017-01-25T05:19:04.059Z,80.84
2017-01-25T05:19:30.164Z,81.03
2017-01-25T05:19:56.259Z,80.94
2017-01-25T05:20:22.347Z,80.84
2017-01-25T05:20:48.458Z,81.13
2017-01-25T05:21:14.555Z,81.32
2017-01-25T05:21:40.650Z,81.22
2017-01-25T05:22:06.748Z,81.13
2017-01-25T05:22:32.856Z,80.84
2017-01-25T05:22:58.947Z,80.94
2017-01-25T05:23:25.044Z,80.94
2017-01-25T05:23:51.151Z,80.84
2017-01-25T05:24:17.237Z,80.94
2017-01-25T05:24:43.339Z,80.65
2017-01-25T05:25:09.440Z,80.46
2017-01-25T05:25:35.530Z,80.37
2017-01-25T05:26:01.617Z,80.84
2017-01-25T05:26:27.728Z,80.75
2017-01-25T05:26:53.829Z,81.03
2017-01-25T05:27:19.930Z,81.22
2017-01-25T05:27:46.016Z,81.18
2017-01-25T05:28:12.112Z,81.32
2017-01-25T05:28:38.249Z,81.74
2017-01-25T05:29:04.347Z,81.88
2017-01-25T05:29:30.433Z,81.41
2017-01-25T05:29:56.546Z,81.51
2017-01-25T05:30:22.639Z,81.7
2017-01-25T05:30:48.731Z,81.51
2017-01-25T05:31:14.838Z,81.22
2017-01-25T05:31:40.937Z,81.22
2017-01-25T05:32:07.022Z,81.32
2017-01-25T05:32:33.122Z,81.6
2017-01-25T05:32:59.212Z,81.84
2017-01-25T05:33:25.316Z,81.65
2017-01-25T05:33:51.409Z,81.46
2017-01-25T05:34:17.496Z,82.12
2017-01-25T05:34:43.604Z,81.93
2017-01-25T05:35:09.702Z,81.84
2017-01-25T05:35:35.794Z,82.03
2017-01-25T05:36:01.894Z,82.03
2017-01-25T05:36:27.994Z,82.12
2017-01-25T05:36:54.112Z,82.31
2017-01-25T05:37:20.215Z,82.03
2017-01-25T05:37:46.321Z,82.41